Challenge Peak — 9V9589 — position and weather

sailwx.info

Track history (hours):
 
Tides and Currents Weather Stations Pressure Air Temp Water Temp Dewpoint Dewpoint Depression Visibility Wind Speed Wind Dir Waves Ship Positions

Challenge Peak

Last reported at 2016-May-29 08:09 UTC. Time now 2016-Jun-26 17:28 UTC.
Position N 34°02' E 134°59'.
Warning: this ship's position is 28 days out of date.

Length 182 m; draft 11.2 m.

Type: Tanker. MMSI: 566433000.

Date/timePositionNaut miles runAvg speedWind from/ knotsBaromVisibWave heightAir tempDewpointWater temp
2016-May-29 08:09N 34°02' E 134°59'812.8
2016-May-29 07:33N 34°10' E 134°58'1211.9
2016-May-29 06:32N 34°22' E 134°60'1312.9
2016-May-29 05:33N 34°33' E 135°06'8 8.2
2016-May-29 04:33N 34°36' E 134°57'  
2016-May-21 19:33N 34°32' E 134°42'1313.1
2016-May-21 18:33N 34°37' E 134°57'9 8.6
2016-May-21 17:33N 34°34' E 135°07'8 8.1
2016-May-21 16:33N 34°26' E 135°04'1110.8
2016-May-21 15:33N 34°16' E 134°59'1110.8
2016-May-21 14:33N 34°06' E 134°59'8 7.5
2016-May-21 13:33N 33°58' E 134°59'  
Track history (hours):
 
Tides and Currents Weather Stations Pressure Air Temp Water Temp Dewpoint Dewpoint Depression Visibility Wind Speed Wind Dir Waves Ship Positions

Challenge Peak

Last reported at 2016-May-29 08:09 UTC. Time now 2016-Jun-26 17:28 UTC.
Position N 34°02' E 134°59'.
Warning: this ship's position is 28 days out of date.

Length 182 m; draft 11.2 m.

Type: Tanker. MMSI: 566433000.

Date/timePositionNaut miles runAvg speedWind from/ knotsBaromVisibWave heightAir tempDewpointWater temp
2016-May-29 08:09N 34°02' E 134°59'812.8
2016-May-29 07:33N 34°10' E 134°58'1211.9
2016-May-29 06:32N 34°22' E 134°60'1312.9
2016-May-29 05:33N 34°33' E 135°06'8 8.2
2016-May-29 04:33N 34°36' E 134°57'  
2016-May-21 19:33N 34°32' E 134°42'1313.1
2016-May-21 18:33N 34°37' E 134°57'9 8.6
2016-May-21 17:33N 34°34' E 135°07'8 8.1
2016-May-21 16:33N 34°26' E 135°04'1110.8
2016-May-21 15:33N 34°16' E 134°59'1110.8
2016-May-21 14:33N 34°06' E 134°59'8 7.5
2016-May-21 13:33N 33°58' E 134°59'  

Dump ship's entire track history